sensor_id;sensor_type;location;lat;lon;timestamp;pressure;altitude;pressure_sealevel;temperature;humidity
39739;BME280;25422;48.286;8.484;2023-04-25T00:00:14;93461.06;;;4.57;100.00
39739;BME280;25422;48.286;8.484;2023-04-25T00:02:40;93460.56;;;4.53;100.00
39739;BME280;25422;48.286;8.484;2023-04-25T00:05:05;93458.78;;;4.54;100.00
39739;BME280;25422;48.286;8.484;2023-04-25T00:07:31;93458.63;;;4.55;100.00
39739;BME280;25422;48.286;8.484;2023-04-25T00:09:58;93453.28;;;4.57;100.00
39739;BME280;25422;48.286;8.484;2023-04-25T00:12:23;93449.25;;;4.54;100.00
39739;BME280;25422;48.286;8.484;2023-04-25T00:14:48;93452.47;;;4.56;100.00
39739;BME280;25422;48.286;8.484;2023-04-25T00:17:15;93450.03;;;4.55;100.00
39739;BME280;25422;48.286;8.484;2023-04-25T00:19:42;93447.41;;;4.47;100.00
39739;BME280;25422;48.286;8.484;2023-04-25T00:22:07;93450.13;;;4.45;100.00
39739;BME280;25422;48.286;8.484;2023-04-25T00:24:33;93449.03;;;4.48;100.00
39739;BME280;25422;48.286;8.484;2023-04-25T00:26:58;93456.34;;;4.52;100.00
39739;BME280;25422;48.286;8.484;2023-04-25T00:29:23;93456.66;;;4.49;100.00
39739;BME280;25422;48.286;8.484;2023-04-25T00:31:49;93456.28;;;4.44;100.00
39739;BME280;25422;48.286;8.484;2023-04-25T00:34:14;93449.41;;;4.35;100.00
39739;BME280;25422;48.286;8.484;2023-04-25T00:36:40;93450.13;;;4.27;100.00
39739;BME280;25422;48.286;8.484;2023-04-25T00:39:05;93453.34;;;4.21;100.00
39739;BME280;25422;48.286;8.484;2023-04-25T00:41:32;93452.00;;;4.17;100.00
39739;BME280;25422;48.286;8.484;2023-04-25T00:43:59;93455.19;;;4.11;100.00
39739;BME280;25422;48.286;8.484;2023-04-25T00:46:25;93443.88;;;4.12;100.00
39739;BME280;25422;48.286;8.484;2023-04-25T00:48:51;93450.59;;;4.04;100.00
39739;BME280;25422;48.286;8.484;2023-04-25T00:51:19;93450.59;;;4.04;100.00
39739;BME280;25422;48.286;8.484;2023-04-25T00:53:46;93441.66;;;3.99;100.00
39739;BME280;25422;48.286;8.484;2023-04-25T00:56:12;93443.50;;;4.07;100.00
39739;BME280;25422;48.286;8.484;2023-04-25T00:58:38;93437.66;;;4.04;100.00
39739;BME280;25422;48.286;8.484;2023-04-25T01:01:03;93436.34;;;4.00;100.00
39739;BME280;25422;48.286;8.484;2023-04-25T01:03:33;93438.53;;;3.95;100.00
39739;BME280;25422;48.286;8.484;2023-04-25T01:06:01;93427.97;;;3.88;100.00
39739;BME280;25422;48.286;8.484;2023-04-25T01:08:27;93429.44;;;3.91;100.00
39739;BME280;25422;48.286;8.484;2023-04-25T01:10:53;93437.78;;;3.85;100.00
39739;BME280;25422;48.286;8.484;2023-04-25T01:13:18;93433.88;;;3.81;100.00
39739;BME280;25422;48.286;8.484;2023-04-25T01:15:44;93436.91;;;3.76;100.00
39739;BME280;25422;48.286;8.484;2023-04-25T01:18:09;93432.53;;;3.77;100.00
39739;BME280;25422;48.286;8.484;2023-04-25T01:20:37;93434.97;;;3.78;100.00
39739;BME280;25422;48.286;8.484;2023-04-25T01:23:03;93439.50;;;3.76;100.00
39739;BME280;25422;48.286;8.484;2023-04-25T01:25:32;93429.28;;;3.75;100.00
39739;BME280;25422;48.286;8.484;2023-04-25T01:27:57;93429.28;;;3.75;100.00
39739;BME280;25422;48.286;8.484;2023-04-25T01:30:26;93423.81;;;3.78;100.00
39739;BME280;25422;48.286;8.484;2023-04-25T01:32:53;93432.13;;;3.81;100.00
39739;BME280;25422;48.286;8.484;2023-04-25T01:35:20;93438.00;;;3.92;100.00
39739;BME280;25422;48.286;8.484;2023-04-25T01:37:47;93437.00;;;3.84;100.00
39739;BME280;25422;48.286;8.484;2023-04-25T01:40:13;93431.00;;;3.84;100.00
39739;BME280;25422;48.286;8.484;2023-04-25T01:42:40;93434.16;;;3.78;100.00
39739;BME280;25422;48.286;8.484;2023-04-25T01:45:07;93435.72;;;3.70;100.00
39739;BME280;25422;48.286;8.484;2023-04-25T01:47:33;93432.66;;;3.57;100.00
39739;BME280;25422;48.286;8.484;2023-04-25T01:50:01;93434.88;;;3.52;100.00
39739;BME280;25422;48.286;8.484;2023-04-25T01:52:27;93429.16;;;3.48;100.00
39739;BME280;25422;48.286;8.484;2023-04-25T01:54:53;93429.25;;;3.57;100.00
39739;BME280;25422;48.286;8.484;2023-04-25T01:57:19;93427.34;;;3.59;100.00
39739;BME280;25422;48.286;8.484;2023-04-25T01:59:45;93419.75;;;3.57;100.00
39739;BME280;25422;48.286;8.484;2023-04-25T02:02:37;93423.13;;;3.58;100.00
39739;BME280;25422;48.286;8.484;2023-04-25T02:05:04;93414.84;;;3.54;100.00
39739;BME280;25422;48.286;8.484;2023-04-25T02:07:32;93416.53;;;3.45;100.00
39739;BME280;25422;48.286;8.484;2023-04-25T02:09:58;93418.72;;;3.40;100.00
39739;BME280;25422;48.286;8.484;2023-04-25T02:12:25;93421.75;;;3.35;100.00
39739;BME280;25422;48.286;8.484;2023-04-25T02:15:20;93419.31;;;3.34;100.00
39739;BME280;25422;48.286;8.484;2023-04-25T02:17:53;93414.16;;;3.34;100.00
39739;BME280;25422;48.286;8.484;2023-04-25T02:20:21;93411.13;;;3.38;100.00
39739;BME280;25422;48.286;8.484;2023-04-25T02:22:47;93400.94;;;3.37;100.00
39739;BME280;25422;48.286;8.484;2023-04-25T02:25:12;93404.09;;;3.31;100.00
39739;BME280;25422;48.286;8.484;2023-04-25T02:27:38;93395.00;;;3.27;100.00
39739;BME280;25422;48.286;8.484;2023-04-25T02:30:05;93398.66;;;3.24;100.00
39739;BME280;25422;48.286;8.484;2023-04-25T02:32:33;93400.75;;;3.20;100.00
39739;BME280;25422;48.286;8.484;2023-04-25T02:35:00;93401.16;;;3.16;100.00
39739;BME280;25422;48.286;8.484;2023-04-25T02:37:32;93399.41;;;3.16;100.00
39739;BME280;25422;48.286;8.484;2023-04-25T02:39:58;93403.75;;;3.16;100.00
39739;BME280;25422;48.286;8.484;2023-04-25T02:42:23;93406.72;;;3.21;100.00
39739;BME280;25422;48.286;8.484;2023-04-25T02:44:49;93403.03;;;3.24;100.00
39739;BME280;25422;48.286;8.484;2023-04-25T02:47:14;93400.25;;;3.35;100.00
39739;BME280;25422;48.286;8.484;2023-04-25T02:49:41;93391.31;;;3.29;100.00
39739;BME280;25422;48.286;8.484;2023-04-25T02:52:07;93386.34;;;3.18;100.00
39739;BME280;25422;48.286;8.484;2023-04-25T02:54:34;93391.03;;;3.04;100.00
39739;BME280;25422;48.286;8.484;2023-04-25T02:57:00;93381.69;;;2.94;100.00
39739;BME280;25422;48.286;8.484;2023-04-25T02:59:31;93384.97;;;2.96;100.00
39739;BME280;25422;48.286;8.484;2023-04-25T03:01:56;93390.00;;;2.87;100.00
39739;BME280;25422;48.286;8.484;2023-04-25T03:04:23;93394.81;;;2.73;100.00
39739;BME280;25422;48.286;8.484;2023-04-25T03:06:50;93394.34;;;2.59;100.00
39739;BME280;25422;48.286;8.484;2023-04-25T03:09:15;93390.94;;;2.49;100.00
39739;BME280;25422;48.286;8.484;2023-04-25T03:11:41;93387.97;;;2.44;100.00
39739;BME280;25422;48.286;8.484;2023-04-25T03:14:07;93393.97;;;2.34;100.00
39739;BME280;25422;48.286;8.484;2023-04-25T03:16:33;93385.16;;;2.27;100.00
39739;BME280;25422;48.286;8.484;2023-04-25T03:18:59;93381.09;;;2.25;100.00
39739;BME280;25422;48.286;8.484;2023-04-25T03:21:25;93389.00;;;2.13;100.00
39739;BME280;25422;48.286;8.484;2023-04-25T03:23:51;93388.88;;;2.05;100.00
39739;BME280;25422;48.286;8.484;2023-04-25T03:26:17;93389.00;;;2.04;100.00
39739;BME280;25422;48.286;8.484;2023-04-25T03:28:43;93380.84;;;2.08;100.00
39739;BME280;25422;48.286;8.484;2023-04-25T03:31:08;93371.06;;;2.12;100.00
39739;BME280;25422;48.286;8.484;2023-04-25T03:33:34;93368.84;;;2.17;100.00
39739;BME280;25422;48.286;8.484;2023-04-25T03:35:59;93366.28;;;2.17;100.00
39739;BME280;25422;48.286;8.484;2023-04-25T03:38:26;93367.66;;;2.11;100.00
39739;BME280;25422;48.286;8.484;2023-04-25T03:40:52;93368.59;;;2.10;100.00
39739;BME280;25422;48.286;8.484;2023-04-25T03:43:39;93365.91;;;2.02;100.00
39739;BME280;25422;48.286;8.484;2023-04-25T03:46:10;93366.72;;;1.83;100.00
39739;BME280;25422;48.286;8.484;2023-04-25T03:48:36;93363.06;;;1.76;100.00
39739;BME280;25422;48.286;8.484;2023-04-25T03:51:02;93367.16;;;1.59;100.00
39739;BME280;25422;48.286;8.484;2023-04-25T03:53:29;93363.47;;;1.51;100.00
39739;BME280;25422;48.286;8.484;2023-04-25T03:56:13;93366.72;;;1.34;100.00
39739;BME280;25422;48.286;8.484;2023-04-25T03:58:39;93363.31;;;1.43;100.00
39739;BME280;25422;48.286;8.484;2023-04-25T04:01:05;93373.50;;;1.55;100.00
39739;BME280;25422;48.286;8.484;2023-04-25T04:03:34;93382.47;;;1.80;100.00
39739;BME280;25422;48.286;8.484;2023-04-25T04:06:04;93390.75;;;1.93;100.00
39739;BME280;25422;48.286;8.484;2023-04-25T04:08:33;93385.72;;;2.11;100.00
39739;BME280;25422;48.286;8.484;2023-04-25T04:10:59;93393.56;;;2.19;100.00
39739;BME280;25422;48.286;8.484;2023-04-25T04:13:26;93392.91;;;2.27;100.00
39739;BME280;25422;48.286;8.484;2023-04-25T04:15:52;93395.19;;;2.40;100.00
39739;BME280;25422;48.286;8.484;2023-04-25T04:18:18;93395.16;;;2.50;100.00
39739;BME280;25422;48.286;8.484;2023-04-25T04:20:44;93389.44;;;2.56;100.00
39739;BME280;25422;48.286;8.484;2023-04-25T04:23:11;93385.59;;;2.60;100.00
39739;BME280;25422;48.286;8.484;2023-04-25T04:25:36;93385.19;;;2.65;100.00
39739;BME280;25422;48.286;8.484;2023-04-25T04:28:18;93375.28;;;2.60;100.00
39739;BME280;25422;48.286;8.484;2023-04-25T04:31:03;93373.41;;;2.52;100.00
39739;BME280;25422;48.286;8.484;2023-04-25T04:33:29;93376.16;;;2.51;100.00
39739;BME280;25422;48.286;8.484;2023-04-25T04:36:00;93374.66;;;2.48;100.00
39739;BME280;25422;48.286;8.484;2023-04-25T04:38:26;93371.09;;;2.49;100.00
39739;BME280;25422;48.286;8.484;2023-04-25T04:40:55;93367.84;;;2.47;100.00
39739;BME280;25422;48.286;8.484;2023-04-25T04:43:31;93359.72;;;2.42;100.00
39739;BME280;25422;48.286;8.484;2023-04-25T04:46:07;93362.00;;;2.45;100.00
39739;BME280;25422;48.286;8.484;2023-04-25T04:48:41;93357.69;;;2.46;100.00
39739;BME280;25422;48.286;8.484;2023-04-25T04:51:25;93358.78;;;2.43;100.00
39739;BME280;25422;48.286;8.484;2023-04-25T04:53:53;93361.50;;;2.42;100.00
39739;BME280;25422;48.286;8.484;2023-04-25T04:56:38;93358.22;;;2.40;100.00
39739;BME280;25422;48.286;8.484;2023-04-25T04:59:15;93365.25;;;2.57;100.00
39739;BME280;25422;48.286;8.484;2023-04-25T05:01:59;93369.06;;;2.53;100.00
39739;BME280;25422;48.286;8.484;2023-04-25T05:04:44;93369.47;;;2.58;100.00
39739;BME280;25422;48.286;8.484;2023-04-25T05:07:38;93363.31;;;2.69;100.00
39739;BME280;25422;48.286;8.484;2023-04-25T05:10:10;93361.22;;;2.82;100.00
39739;BME280;25422;48.286;8.484;2023-04-25T05:12:58;93372.59;;;2.90;100.00
39739;BME280;25422;48.286;8.484;2023-04-25T05:16:01;93369.50;;;3.14;100.00
39739;BME280;25422;48.286;8.484;2023-04-25T05:18:39;93375.19;;;3.17;100.00
39739;BME280;25422;48.286;8.484;2023-04-25T05:21:21;93375.19;;;3.17;100.00
39739;BME280;25422;48.286;8.484;2023-04-25T05:24:05;93363.94;;;3.09;100.00
39739;BME280;25422;48.286;8.484;2023-04-25T05:27:03;93366.56;;;2.99;100.00
39739;BME280;25422;48.286;8.484;2023-04-25T05:29:47;93364.84;;;2.90;100.00
39739;BME280;25422;48.286;8.484;2023-04-25T05:32:45;93363.75;;;2.92;100.00
39739;BME280;25422;48.286;8.484;2023-04-25T05:35:12;93371.22;;;2.95;100.00
39739;BME280;25422;48.286;8.484;2023-04-25T05:37:45;93368.88;;;3.02;100.00
39739;BME280;25422;48.286;8.484;2023-04-25T05:40:13;93373.75;;;3.05;100.00
39739;BME280;25422;48.286;8.484;2023-04-25T05:42:57;93355.22;;;3.10;100.00
39739;BME280;25422;48.286;8.484;2023-04-25T05:45:43;93360.19;;;3.21;100.00
39739;BME280;25422;48.286;8.484;2023-04-25T05:48:40;93354.38;;;3.37;100.00
39739;BME280;25422;48.286;8.484;2023-04-25T05:51:16;93356.41;;;3.43;100.00
39739;BME280;25422;48.286;8.484;2023-04-25T05:53:57;93366.22;;;3.58;100.00
39739;BME280;25422;48.286;8.484;2023-04-25T05:56:23;93361.50;;;3.53;100.00
39739;BME280;25422;48.286;8.484;2023-04-25T05:58:51;93364.16;;;3.61;100.00
39739;BME280;25422;48.286;8.484;2023-04-25T06:01:16;93354.28;;;3.75;100.00
39739;BME280;25422;48.286;8.484;2023-04-25T06:03:43;93352.84;;;3.80;100.00
39739;BME280;25422;48.286;8.484;2023-04-25T06:06:10;93355.97;;;3.84;100.00
39739;BME280;25422;48.286;8.484;2023-04-25T06:08:36;93352.56;;;3.83;100.00
39739;BME280;25422;48.286;8.484;2023-04-25T06:11:03;93354.91;;;3.95;100.00
39739;BME280;25422;48.286;8.484;2023-04-25T06:13:28;93350.97;;;4.09;100.00
39739;BME280;25422;48.286;8.484;2023-04-25T06:15:54;93364.09;;;4.07;100.00
39739;BME280;25422;48.286;8.484;2023-04-25T06:18:20;93354.94;;;4.21;100.00
39739;BME280;25422;48.286;8.484;2023-04-25T06:20:45;93359.66;;;4.44;100.00
39739;BME280;25422;48.286;8.484;2023-04-25T06:23:11;93365.19;;;4.57;100.00
39739;BME280;25422;48.286;8.484;2023-04-25T06:25:51;93363.50;;;4.66;100.00
39739;BME280;25422;48.286;8.484;2023-04-25T06:28:16;93365.91;;;4.67;100.00
39739;BME280;25422;48.286;8.484;2023-04-25T06:30:43;93354.75;;;4.67;100.00
39739;BME280;25422;48.286;8.484;2023-04-25T06:33:12;93366.03;;;4.58;100.00
39739;BME280;25422;48.286;8.484;2023-04-25T06:35:39;93366.59;;;4.43;100.00
39739;BME280;25422;48.286;8.484;2023-04-25T06:38:06;93362.78;;;4.55;100.00
39739;BME280;25422;48.286;8.484;2023-04-25T06:40:32;93359.06;;;4.58;100.00
39739;BME280;25422;48.286;8.484;2023-04-25T06:42:57;93360.34;;;4.54;100.00
39739;BME280;25422;48.286;8.484;2023-04-25T06:45:44;93354.44;;;4.70;100.00
39739;BME280;25422;48.286;8.484;2023-04-25T06:48:10;93349.25;;;4.70;100.00
39739;BME280;25422;48.286;8.484;2023-04-25T06:50:36;93350.78;;;4.81;100.00
39739;BME280;25422;48.286;8.484;2023-04-25T06:53:01;93344.59;;;4.73;100.00
39739;BME280;25422;48.286;8.484;2023-04-25T06:55:28;93355.91;;;4.72;100.00
39739;BME280;25422;48.286;8.484;2023-04-25T06:58:07;93358.47;;;4.64;100.00
39739;BME280;25422;48.286;8.484;2023-04-25T07:00:51;93355.25;;;4.44;100.00
39739;BME280;25422;48.286;8.484;2023-04-25T07:03:18;93357.84;;;4.44;100.00
39739;BME280;25422;48.286;8.484;2023-04-25T07:05:44;93362.34;;;4.42;100.00
39739;BME280;25422;48.286;8.484;2023-04-25T07:08:11;93365.94;;;4.41;100.00
39739;BME280;25422;48.286;8.484;2023-04-25T07:10:36;93368.97;;;4.36;100.00
39739;BME280;25422;48.286;8.484;2023-04-25T07:13:02;93361.50;;;4.33;100.00
39739;BME280;25422;48.286;8.484;2023-04-25T07:15:29;93360.25;;;4.37;100.00
39739;BME280;25422;48.286;8.484;2023-04-25T07:17:55;93376.09;;;4.34;100.00
39739;BME280;25422;48.286;8.484;2023-04-25T07:20:21;93373.34;;;4.36;100.00
39739;BME280;25422;48.286;8.484;2023-04-25T07:22:46;93398.72;;;4.32;100.00
39739;BME280;25422;48.286;8.484;2023-04-25T07:25:12;93402.19;;;3.51;100.00
39739;BME280;25422;48.286;8.484;2023-04-25T07:27:38;93407.06;;;3.36;100.00
39739;BME280;25422;48.286;8.484;2023-04-25T07:30:12;93410.56;;;3.17;100.00
39739;BME280;25422;48.286;8.484;2023-04-25T07:32:38;93418.75;;;2.75;100.00
39739;BME280;25422;48.286;8.484;2023-04-25T07:35:05;93424.81;;;2.46;100.00
39739;BME280;25422;48.286;8.484;2023-04-25T07:37:33;93435.16;;;2.16;100.00
39739;BME280;25422;48.286;8.484;2023-04-25T07:40:03;93436.66;;;1.99;100.00
39739;BME280;25422;48.286;8.484;2023-04-25T07:42:29;93435.16;;;2.07;100.00
39739;BME280;25422;48.286;8.484;2023-04-25T07:44:55;93444.25;;;2.11;100.00
39739;BME280;25422;48.286;8.484;2023-04-25T07:47:21;93443.97;;;2.24;100.00
39739;BME280;25422;48.286;8.484;2023-04-25T07:49:46;93448.44;;;2.31;100.00
39739;BME280;25422;48.286;8.484;2023-04-25T07:52:13;93456.03;;;2.43;100.00
39739;BME280;25422;48.286;8.484;2023-04-25T07:54:44;93457.16;;;2.40;100.00
39739;BME280;25422;48.286;8.484;2023-04-25T07:57:15;93456.59;;;2.36;100.00
39739;BME280;25422;48.286;8.484;2023-04-25T07:59:43;93468.31;;;2.31;100.00
39739;BME280;25422;48.286;8.484;2023-04-25T08:02:09;93461.50;;;2.30;100.00
39739;BME280;25422;48.286;8.484;2023-04-25T08:04:35;93476.31;;;2.18;100.00
39739;BME280;25422;48.286;8.484;2023-04-25T08:07:03;93482.13;;;2.00;100.00
39739;BME280;25422;48.286;8.484;2023-04-25T08:09:34;93482.78;;;1.83;100.00
39739;BME280;25422;48.286;8.484;2023-04-25T08:12:04;93495.38;;;1.66;100.00
39739;BME280;25422;48.286;8.484;2023-04-25T08:14:31;93494.13;;;1.41;100.00
39739;BME280;25422;48.286;8.484;2023-04-25T08:17:03;93493.06;;;1.13;100.00
39739;BME280;25422;48.286;8.484;2023-04-25T08:19:30;93498.72;;;1.07;100.00
39739;BME280;25422;48.286;8.484;2023-04-25T08:21:56;93502.81;;;0.88;100.00
39739;BME280;25422;48.286;8.484;2023-04-25T08:24:28;93508.81;;;0.67;100.00
39739;BME280;25422;48.286;8.484;2023-04-25T08:26:53;93518.66;;;0.62;100.00
39739;BME280;25422;48.286;8.484;2023-04-25T08:29:21;93524.78;;;0.61;100.00
39739;BME280;25422;48.286;8.484;2023-04-25T08:31:49;93528.97;;;0.62;100.00
39739;BME280;25422;48.286;8.484;2023-04-25T08:34:15;93529.91;;;0.61;100.00
39739;BME280;25422;48.286;8.484;2023-04-25T08:36:43;93535.19;;;0.60;100.00
39739;BME280;25422;48.286;8.484;2023-04-25T08:39:37;93535.81;;;0.52;100.00
39739;BME280;25422;48.286;8.484;2023-04-25T08:42:27;93545.22;;;0.42;100.00
39739;BME280;25422;48.286;8.484;2023-04-25T08:44:53;93551.25;;;0.52;100.00
39739;BME280;25422;48.286;8.484;2023-04-25T08:47:24;93550.38;;;0.63;100.00
39739;BME280;25422;48.286;8.484;2023-04-25T08:49:55;93561.44;;;0.75;100.00
39739;BME280;25422;48.286;8.484;2023-04-25T08:52:22;93554.09;;;0.91;100.00
39739;BME280;25422;48.286;8.484;2023-04-25T08:54:51;93561.38;;;1.07;100.00
39739;BME280;25422;48.286;8.484;2023-04-25T08:57:18;93568.41;;;1.26;100.00
39739;BME280;25422;48.286;8.484;2023-04-25T08:59:45;93554.47;;;1.39;100.00
39739;BME280;25422;48.286;8.484;2023-04-25T09:02:12;93568.06;;;1.50;100.00
39739;BME280;25422;48.286;8.484;2023-04-25T09:04:44;93573.69;;;1.65;100.00
39739;BME280;25422;48.286;8.484;2023-04-25T09:07:10;93576.31;;;1.75;100.00
39739;BME280;25422;48.286;8.484;2023-04-25T09:09:35;93572.25;;;1.82;100.00
39739;BME280;25422;48.286;8.484;2023-04-25T09:12:01;93581.81;;;2.01;100.00
39739;BME280;25422;48.286;8.484;2023-04-25T09:14:27;93581.31;;;2.08;100.00
39739;BME280;25422;48.286;8.484;2023-04-25T09:17:04;93587.00;;;2.11;100.00
39739;BME280;25422;48.286;8.484;2023-04-25T09:19:52;93595.31;;;2.34;100.00
39739;BME280;25422;48.286;8.484;2023-04-25T09:22:37;93588.13;;;2.48;100.00
39739;BME280;25422;48.286;8.484;2023-04-25T09:25:07;93583.63;;;2.79;100.00
39739;BME280;25422;48.286;8.484;2023-04-25T09:27:33;93591.81;;;2.84;100.00
39739;BME280;25422;48.286;8.484;2023-04-25T09:30:09;93601.69;;;3.18;100.00
39739;BME280;25422;48.286;8.484;2023-04-25T09:32:52;93605.78;;;3.11;100.00
39739;BME280;25422;48.286;8.484;2023-04-25T09:35:25;93602.44;;;3.48;100.00
39739;BME280;25422;48.286;8.484;2023-04-25T09:37:56;93605.00;;;3.96;100.00
39739;BME280;25422;48.286;8.484;2023-04-25T09:40:44;93604.28;;;4.03;100.00
39739;BME280;25422;48.286;8.484;2023-04-25T09:43:24;93606.34;;;4.28;100.00
39739;BME280;25422;48.286;8.484;2023-04-25T09:45:54;93605.69;;;4.44;100.00
39739;BME280;25422;48.286;8.484;2023-04-25T09:48:23;93605.03;;;4.96;100.00
39739;BME280;25422;48.286;8.484;2023-04-25T09:53:36;93612.78;;;5.93;100.00
39739;BME280;25422;48.286;8.484;2023-04-25T09:56:23;93610.13;;;5.50;100.00
39739;BME280;25422;48.286;8.484;2023-04-25T09:58:50;93618.28;;;5.55;100.00
39739;BME280;25422;48.286;8.484;2023-04-25T10:01:19;93618.94;;;5.31;100.00
39739;BME280;25422;48.286;8.484;2023-04-25T10:04:00;93616.34;;;5.31;100.00
39739;BME280;25422;48.286;8.484;2023-04-25T10:06:41;93613.34;;;4.99;100.00
39739;BME280;25422;48.286;8.484;2023-04-25T10:09:08;93617.13;;;5.05;100.00
39739;BME280;25422;48.286;8.484;2023-04-25T10:11:34;93620.66;;;5.04;100.00
39739;BME280;25422;48.286;8.484;2023-04-25T10:14:00;93617.47;;;5.10;100.00
39739;BME280;25422;48.286;8.484;2023-04-25T10:16:27;93621.41;;;4.96;100.00
39739;BME280;25422;48.286;8.484;2023-04-25T10:18:54;93628.34;;;5.14;100.00
39739;BME280;25422;48.286;8.484;2023-04-25T10:21:21;93626.09;;;5.37;100.00
39739;BME280;25422;48.286;8.484;2023-04-25T10:23:48;93625.88;;;5.48;100.00
39739;BME280;25422;48.286;8.484;2023-04-25T10:26:14;93633.56;;;6.19;100.00
39739;BME280;25422;48.286;8.484;2023-04-25T10:28:56;93634.19;;;6.13;100.00
39739;BME280;25422;48.286;8.484;2023-04-25T10:31:22;93627.72;;;5.90;100.00
39739;BME280;25422;48.286;8.484;2023-04-25T10:33:48;93630.31;;;5.90;100.00
39739;BME280;25422;48.286;8.484;2023-04-25T10:36:16;93635.97;;;5.60;100.00
39739;BME280;25422;48.286;8.484;2023-04-25T10:38:43;93637.94;;;5.57;100.00
39739;BME280;25422;48.286;8.484;2023-04-25T10:41:10;93642.16;;;5.85;100.00
39739;BME280;25422;48.286;8.484;2023-04-25T10:43:43;93639.75;;;5.91;100.00
39739;BME280;25422;48.286;8.484;2023-04-25T10:46:23;93648.63;;;5.36;100.00
39739;BME280;25422;48.286;8.484;2023-04-25T10:48:53;93645.03;;;5.55;100.00
39739;BME280;25422;48.286;8.484;2023-04-25T10:54:04;93648.94;;;5.60;100.00
39739;BME280;25422;48.286;8.484;2023-04-25T10:56:37;93651.53;;;6.04;100.00
39739;BME280;25422;48.286;8.484;2023-04-25T10:59:10;93639.63;;;6.36;100.00
39739;BME280;25422;48.286;8.484;2023-04-25T11:01:44;93654.22;;;5.94;100.00
39739;BME280;25422;48.286;8.484;2023-04-25T11:04:29;93644.06;;;5.56;100.00
39739;BME280;25422;48.286;8.484;2023-04-25T11:06:58;93649.69;;;5.52;100.00
39739;BME280;25422;48.286;8.484;2023-04-25T11:09:26;93652.66;;;5.57;100.00
39739;BME280;25422;48.286;8.484;2023-04-25T11:11:55;93652.25;;;5.44;100.00
39739;BME280;25422;48.286;8.484;2023-04-25T11:14:20;93655.94;;;5.85;100.00
39739;BME280;25422;48.286;8.484;2023-04-25T11:16:47;93659.75;;;5.99;100.00
39739;BME280;25422;48.286;8.484;2023-04-25T11:19:12;93656.69;;;5.78;100.00
39739;BME280;25422;48.286;8.484;2023-04-25T11:21:37;93653.25;;;6.30;100.00
39739;BME280;25422;48.286;8.484;2023-04-25T11:24:03;93659.28;;;6.38;100.00
39739;BME280;25422;48.286;8.484;2023-04-25T11:26:30;93657.97;;;6.34;100.00
39739;BME280;25422;48.286;8.484;2023-04-25T11:28:59;93651.09;;;6.17;100.00
39739;BME280;25422;48.286;8.484;2023-04-25T11:31:25;93661.84;;;6.30;100.00
39739;BME280;25422;48.286;8.484;2023-04-25T11:33:53;93667.47;;;5.91;100.00
39739;BME280;25422;48.286;8.484;2023-04-25T11:36:19;93663.25;;;5.64;100.00
39739;BME280;25422;48.286;8.484;2023-04-25T11:38:44;93667.84;;;5.70;100.00
39739;BME280;25422;48.286;8.484;2023-04-25T11:41:10;93664.38;;;5.61;100.00
39739;BME280;25422;48.286;8.484;2023-04-25T11:43:36;93664.47;;;5.78;100.00
39739;BME280;25422;48.286;8.484;2023-04-25T11:46:06;93662.13;;;5.66;100.00
39739;BME280;25422;48.286;8.484;2023-04-25T11:48:39;93652.28;;;6.90;100.00
39739;BME280;25422;48.286;8.484;2023-04-25T11:51:05;93656.56;;;7.57;100.00
39739;BME280;25422;48.286;8.484;2023-04-25T11:53:30;93662.25;;;7.36;100.00
39739;BME280;25422;48.286;8.484;2023-04-25T11:55:56;93659.16;;;7.07;100.00
39739;BME280;25422;48.286;8.484;2023-04-25T11:58:21;93668.59;;;7.41;100.00
39739;BME280;25422;48.286;8.484;2023-04-25T12:00:47;93672.97;;;7.82;100.00
39739;BME280;25422;48.286;8.484;2023-04-25T12:03:12;93678.19;;;7.74;100.00
39739;BME280;25422;48.286;8.484;2023-04-25T12:05:38;93683.84;;;8.02;100.00
39739;BME280;25422;48.286;8.484;2023-04-25T12:08:15;93689.69;;;7.96;100.00
39739;BME280;25422;48.286;8.484;2023-04-25T12:10:45;93685.47;;;8.12;100.00
39739;BME280;25422;48.286;8.484;2023-04-25T12:13:25;93677.13;;;8.72;100.00
39739;BME280;25422;48.286;8.484;2023-04-25T12:15:56;93681.94;;;9.15;100.00
39739;BME280;25422;48.286;8.484;2023-04-25T12:18:24;93677.53;;;8.53;100.00
39739;BME280;25422;48.286;8.484;2023-04-25T12:20:52;93682.28;;;8.89;100.00
39739;BME280;25422;48.286;8.484;2023-04-25T12:23:25;93681.13;;;8.91;100.00
39739;BME280;25422;48.286;8.484;2023-04-25T12:25:52;93685.94;;;8.71;100.00
39739;BME280;25422;48.286;8.484;2023-04-25T12:30:59;93687.09;;;8.04;100.00
39739;BME280;25422;48.286;8.484;2023-04-25T12:33:26;93681.50;;;8.32;100.00
39739;BME280;25422;48.286;8.484;2023-04-25T12:35:53;93685.44;;;8.68;100.00
39739;BME280;25422;48.286;8.484;2023-04-25T12:38:29;93689.41;;;9.18;100.00
39739;BME280;25422;48.286;8.484;2023-04-25T12:40:56;93692.44;;;9.30;100.00
39739;BME280;25422;48.286;8.484;2023-04-25T12:43:21;93692.03;;;8.55;100.00
39739;BME280;25422;48.286;8.484;2023-04-25T12:45:51;93705.31;;;8.21;100.00
39739;BME280;25422;48.286;8.484;2023-04-25T12:48:18;93698.00;;;8.72;100.00
39739;BME280;25422;48.286;8.484;2023-04-25T12:50:43;93696.69;;;8.76;100.00
39739;BME280;25422;48.286;8.484;2023-04-25T12:53:09;93701.50;;;8.88;100.00
39739;BME280;25422;48.286;8.484;2023-04-25T12:55:35;93696.97;;;8.82;100.00
39739;BME280;25422;48.286;8.484;2023-04-25T12:58:01;93697.47;;;9.08;100.00
39739;BME280;25422;48.286;8.484;2023-04-25T13:00:27;93698.19;;;8.63;100.00
39739;BME280;25422;48.286;8.484;2023-04-25T13:02:52;93696.28;;;8.88;100.00
39739;BME280;25422;48.286;8.484;2023-04-25T13:05:17;93703.22;;;8.00;100.00
39739;BME280;25422;48.286;8.484;2023-04-25T13:07:43;93698.31;;;8.69;100.00
39739;BME280;25422;48.286;8.484;2023-04-25T13:10:08;93700.09;;;8.77;100.00
39739;BME280;25422;48.286;8.484;2023-04-25T13:12:34;93700.38;;;8.51;100.00
39739;BME280;25422;48.286;8.484;2023-04-25T13:14:59;93693.19;;;8.53;100.00
39739;BME280;25422;48.286;8.484;2023-04-25T13:17:24;93701.69;;;8.47;100.00
39739;BME280;25422;48.286;8.484;2023-04-25T13:19:50;93703.81;;;8.26;100.00